Lime City, Iowa
Current Conditions -  °F | °C
As of 1:15 PM on Saturday 25 Oct 2014 (Local Time) from KMUT Reporting Station
Clear Clear  
Wind Chill: 72°   Ceiling: Unl
Heat Index: 72°   Visibility: 10mi
Dew Point: 37°   Wind: 10mph
Humidity: 29%   Direction: 330°NNW
Pressure: 30.05"   Gusts: 16mph
Location:  41.5598°N, 90.9701°W
Report Text: KMUT 251815Z AUTO 33009G14KT 10SM CLR 22/03 A3005 RMK AO2
Loading
Personal Weather Stations






























Interactive Weather Map
Tropical Storm Tracking
New forecast layout! Learn more

10-Day Weather Forecast

Advertisements
Track Severe Weather on mobile